Terminal Aerodrome Forecast
Issued by NWS

Home | Current Version | Previous Version | Text Only | Print | Product List | Glossary On
Versions: 1 2 3 4 5 6 7 8 9 10 11 12 13 14 15 16 17 18 19 20 21 22 23 24
000
FTUS44 KHGX 210830 AAC
TAFLBX
TAF AMD
KLBX 210830Z 2109/2206 00000KT 1SM BR SCT250
      TEMPO 2109/2113 1/4SM FG VV001
     FM211400 18007KT P6SM BKN012
     FM211600 17009KT P6SM FEW015 SCT250
     FM212000 17012KT P6SM SCT150
     FM220100 VRB04KT P6SM FEW015 SCT150=

USA.gov is the U.S. government's official web portal to all federal, state and local government web resources and services.